createdAt,value
2022-10-23T00:00:43.551Z,14.77
2022-10-23T00:03:11.308Z,14.55
2022-10-23T00:05:39.655Z,14.73
2022-10-23T00:08:06.165Z,14.76
2022-10-23T00:10:32.588Z,14.78
2022-10-23T00:12:59.121Z,14.77
2022-10-23T00:15:25.535Z,14.79
2022-10-23T00:17:51.927Z,14.14
2022-10-23T00:20:19.886Z,14.45
2022-10-23T00:22:46.317Z,14.10
2022-10-23T00:25:12.783Z,14.14
2022-10-23T00:27:39.293Z,14.07
2022-10-23T00:30:07.061Z,14.52
2022-10-23T00:32:33.520Z,14.19
2022-10-23T00:34:59.948Z,14.39
2022-10-23T00:37:27.696Z,14.23
2022-10-23T00:39:54.120Z,14.02
2022-10-23T00:42:21.596Z,14.07
2022-10-23T00:45:12.101Z,13.89
2022-10-23T00:47:38.787Z,13.96
2022-10-23T00:50:06.164Z,13.97
2022-10-23T00:52:37.391Z,14.33
2022-10-23T00:55:04.804Z,14.71
2022-10-23T00:57:31.269Z,13.77
2022-10-23T00:59:57.720Z,14.38
2022-10-23T01:02:24.435Z,14.29
2022-10-23T01:04:51.228Z,14.50
2022-10-23T01:07:25.152Z,14.28
2022-10-23T01:09:58.118Z,14.32
2022-10-23T01:12:34.777Z,14.31
2022-10-23T01:15:09.754Z,14.20
2022-10-23T01:17:44.457Z,14.98
2022-10-23T01:20:25.133Z,14.22
2022-10-23T01:23:08.377Z,14.65
2022-10-23T01:25:52.954Z,13.81
2022-10-23T01:28:26.198Z,14.35
2022-10-23T01:30:57.120Z,14.05
2022-10-23T01:33:27.346Z,13.86
2022-10-23T01:36:00.062Z,13.82
2022-10-23T01:38:33.239Z,14.05
2022-10-23T01:41:03.337Z,14.07
2022-10-23T01:43:36.942Z,13.94
2022-10-23T01:46:06.387Z,14.16
2022-10-23T01:48:35.215Z,14.00
2022-10-23T01:51:06.349Z,14.67
2022-10-23T01:53:36.818Z,14.27
2022-10-23T01:56:06.890Z,14.04
2022-10-23T01:58:36.118Z,14.53
2022-10-23T02:01:05.710Z,14.46
2022-10-23T02:03:35.534Z,13.94
2022-10-23T02:06:01.992Z,14.28
2022-10-23T02:08:28.525Z,14.35
2022-10-23T02:11:04.356Z,14.01
2022-10-23T02:13:37.876Z,14.06
2022-10-23T02:16:12.048Z,14.31
2022-10-23T02:18:46.072Z,13.96
2022-10-23T02:21:17.683Z,14.30
2022-10-23T02:23:52.578Z,14.53
2022-10-23T02:26:26.564Z,14.56
2022-10-23T02:28:59.734Z,14.41
2022-10-23T02:31:26.264Z,14.14
2022-10-23T02:33:52.787Z,14.55
2022-10-23T02:36:19.505Z,14.09
2022-10-23T02:38:46.195Z,13.88
2022-10-23T02:41:35.519Z,14.10
2022-10-23T02:44:12.055Z,14.39
2022-10-23T02:46:50.620Z,14.51
2022-10-23T02:49:21.656Z,14.54
2022-10-23T02:51:57.197Z,14.81
2022-10-23T02:54:35.165Z,14.69
2022-10-23T02:57:09.356Z,14.58
2022-10-23T02:59:43.564Z,14.05
2022-10-23T03:02:17.908Z,14.22
2022-10-23T03:04:45.554Z,13.85
2022-10-23T03:07:14.176Z,14.19
2022-10-23T03:09:40.607Z,14.24
2022-10-23T03:12:07.078Z,14.35
2022-10-23T03:14:33.482Z,14.41
2022-10-23T03:17:01.366Z,14.33
2022-10-23T03:19:27.941Z,14.11
2022-10-23T03:21:54.376Z,14.19
2022-10-23T03:24:20.808Z,14.22
2022-10-23T03:26:47.208Z,14.39
2022-10-23T03:29:13.592Z,14.31
2022-10-23T03:31:40.005Z,14.11
2022-10-23T03:34:08.227Z,14.06
2022-10-23T03:36:34.919Z,14.17
2022-10-23T03:39:01.424Z,14.29
2022-10-23T03:41:27.985Z,14.26
2022-10-23T03:43:54.494Z,14.10
2022-10-23T03:46:20.962Z,14.29
2022-10-23T03:48:47.378Z,14.20
2022-10-23T03:51:15.204Z,14.30
2022-10-23T03:53:41.783Z,13.75
2022-10-23T03:56:08.262Z,14.07
2022-10-23T03:58:34.656Z,13.81
2022-10-23T04:01:01.449Z,14.00
2022-10-23T04:03:27.861Z,14.44
2022-10-23T04:05:54.276Z,14.39
2022-10-23T04:08:22.019Z,14.07
2022-10-23T04:10:48.410Z,13.99
2022-10-23T04:13:14.920Z,14.31
2022-10-23T04:15:41.348Z,14.22
2022-10-23T04:18:07.937Z,13.94
2022-10-23T04:20:34.423Z,14.30
2022-10-23T04:23:01.160Z,13.89
2022-10-23T04:25:29.048Z,14.00
2022-10-23T04:27:55.451Z,14.14
2022-10-23T04:30:21.880Z,14.27
2022-10-23T04:32:50.214Z,14.21
2022-10-23T04:35:16.851Z,14.44
2022-10-23T04:37:43.565Z,14.40
2022-10-23T04:40:10.521Z,14.47
2022-10-23T04:42:38.262Z,14.39
2022-10-23T04:45:05.633Z,14.37
2022-10-23T04:47:32.193Z,14.34
2022-10-23T04:49:58.720Z,14.45
2022-10-23T04:52:25.264Z,14.35
2022-10-23T04:54:51.895Z,14.09
2022-10-23T04:57:18.340Z,14.18
2022-10-23T04:59:46.160Z,14.13
2022-10-23T05:02:12.558Z,13.87
2022-10-23T05:04:39.124Z,14.11
2022-10-23T05:07:05.575Z,14.04
2022-10-23T05:09:31.984Z,14.16
2022-10-23T05:11:58.454Z,13.79
2022-10-23T05:14:24.932Z,14.00
2022-10-23T05:16:57.334Z,14.05
2022-10-23T05:19:27.316Z,13.70
2022-10-23T05:21:55.105Z,13.71
2022-10-23T05:24:21.896Z,13.74
2022-10-23T05:26:48.457Z,13.76
2022-10-23T05:29:14.873Z,13.75
2022-10-23T05:31:41.271Z,13.95
2022-10-23T05:34:13.325Z,14.08
2022-10-23T05:36:40.112Z,14.31
2022-10-23T05:39:06.578Z,14.28
2022-10-23T05:41:33.001Z,14.02
2022-10-23T05:43:59.381Z,14.15
2022-10-23T05:46:25.852Z,13.99
2022-10-23T05:48:52.932Z,14.06
2022-10-23T05:51:21.465Z,14.15
2022-10-23T05:53:48.171Z,13.81
2022-10-23T05:56:14.658Z,14.13
2022-10-23T05:58:41.191Z,14.31
2022-10-23T06:01:08.689Z,13.90
2022-10-23T06:03:35.726Z,13.65
2022-10-23T06:06:02.236Z,13.30
2022-10-23T06:08:30.613Z,13.38
2022-10-23T06:10:57.191Z,13.22
2022-10-23T06:13:23.641Z,13.39
2022-10-23T06:15:50.110Z,13.58
2022-10-23T06:18:16.561Z,13.89
2022-10-23T06:20:42.951Z,14.20
2022-10-23T06:23:09.367Z,13.86
2022-10-23T06:25:37.128Z,13.67
2022-10-23T06:28:03.541Z,13.89
2022-10-23T06:30:30.040Z,14.02
2022-10-23T06:32:56.613Z,14.00
2022-10-23T06:35:23.050Z,14.04
2022-10-23T06:37:49.444Z,14.06
2022-10-23T06:40:15.967Z,13.87
2022-10-23T06:42:44.004Z,13.65
2022-10-23T06:45:10.612Z,13.44
2022-10-23T06:47:37.007Z,13.31
2022-10-23T06:50:04.032Z,13.47
2022-10-23T06:52:45.824Z,13.34
2022-10-23T06:55:12.723Z,13.44
2022-10-23T06:57:39.105Z,13.44
2022-10-23T07:00:08.651Z,13.64
2022-10-23T07:02:35.378Z,13.29
2022-10-23T07:05:01.834Z,13.49
2022-10-23T07:07:29.322Z,14.04
2022-10-23T07:09:55.915Z,14.22
2022-10-23T07:12:22.575Z,13.92
2022-10-23T07:14:49.020Z,13.45
2022-10-23T07:17:16.881Z,13.61
2022-10-23T07:19:43.272Z,13.82
2022-10-23T07:22:11.960Z,14.66
2022-10-23T07:24:41.415Z,14.53
2022-10-23T07:27:07.904Z,13.87
2022-10-23T07:29:34.300Z,13.91
2022-10-23T07:32:00.739Z,13.61
2022-10-23T07:34:28.491Z,13.83
2022-10-23T07:36:54.922Z,14.12
2022-10-23T07:39:21.354Z,13.96
2022-10-23T07:41:47.807Z,14.37
2022-10-23T07:44:14.253Z,14.60
2022-10-23T07:46:40.723Z,14.81
2022-10-23T07:49:07.120Z,14.52
2022-10-23T07:51:34.853Z,14.84
2022-10-23T07:54:01.287Z,14.44
2022-10-23T07:56:28.323Z,14.85
2022-10-23T07:58:54.716Z,15.05
2022-10-23T08:01:34.201Z,15.03
2022-10-23T08:04:00.971Z,15.06
2022-10-23T08:06:27.443Z,15.32
2022-10-23T08:08:55.289Z,15.02
2022-10-23T08:11:24.609Z,15.60
2022-10-23T08:13:51.907Z,15.29
2022-10-23T08:16:18.484Z,15.59
2022-10-23T08:18:44.885Z,15.56
2022-10-23T08:21:11.987Z,15.22
2022-10-23T08:23:38.503Z,15.63
2022-10-23T08:26:06.933Z,15.56
2022-10-23T08:28:33.920Z,15.67
2022-10-23T08:31:07.995Z,15.37
2022-10-23T08:33:34.529Z,15.34
2022-10-23T08:36:01.011Z,16.21
2022-10-23T08:38:27.446Z,15.71
2022-10-23T08:40:53.931Z,15.67
2022-10-23T08:43:29.877Z,16.04
2022-10-23T08:46:00.997Z,16.27
2022-10-23T08:48:33.026Z,16.39
2022-10-23T08:51:05.409Z,16.16
2022-10-23T08:53:39.842Z,16.60
2022-10-23T08:56:14.077Z,15.88
2022-10-23T08:58:46.828Z,15.77
2022-10-23T09:01:37.527Z,16.01
2022-10-23T09:04:05.154Z,16.25
2022-10-23T09:06:36.436Z,16.47
2022-10-23T09:09:18.150Z,16.82
2022-10-23T09:11:53.854Z,16.40
2022-10-23T09:14:50.457Z,16.89
2022-10-23T09:17:24.583Z,17.01
2022-10-23T09:19:59.269Z,16.62
2022-10-23T09:22:27.077Z,16.98
2022-10-23T09:24:54.019Z,17.18
2022-10-23T09:27:20.655Z,16.97
2022-10-23T09:29:51.635Z,17.65
2022-10-23T09:32:18.818Z,16.98
2022-10-23T09:34:54.062Z,17.09
2022-10-23T09:37:23.598Z,17.56
2022-10-23T09:40:01.356Z,17.39
2022-10-23T09:42:27.904Z,16.98
2022-10-23T09:44:55.802Z,17.25
2022-10-23T09:47:24.603Z,17.55
2022-10-23T09:49:52.703Z,17.76
2022-10-23T09:52:25.361Z,17.20
2022-10-23T09:54:55.708Z,17.37
2022-10-23T09:57:27.194Z,18.17
2022-10-23T09:59:57.132Z,17.74
2022-10-23T10:02:28.778Z,17.70
2022-10-23T10:04:55.459Z,17.62
2022-10-23T10:07:24.877Z,18.17
2022-10-23T10:09:53.122Z,17.38
2022-10-23T10:12:36.860Z,17.26
2022-10-23T10:15:18.114Z,17.62
2022-10-23T10:17:57.009Z,17.59
2022-10-23T10:20:43.408Z,17.22
2022-10-23T10:23:17.906Z,17.75
2022-10-23T10:25:53.170Z,17.62
2022-10-23T10:28:30.326Z,17.40
2022-10-23T10:31:08.894Z,17.32
2022-10-23T10:33:42.615Z,17.64
2022-10-23T10:36:18.335Z,17.40
2022-10-23T10:38:48.957Z,17.36
2022-10-23T10:41:32.406Z,17.45
2022-10-23T10:44:12.647Z,17.98
2022-10-23T10:46:47.725Z,18.15
2022-10-23T10:49:19.934Z,17.59
2022-10-23T10:51:54.881Z,17.50
2022-10-23T10:54:37.130Z,17.26
2022-10-23T10:57:12.940Z,17.38
2022-10-23T10:59:44.664Z,17.63
2022-10-23T11:02:23.457Z,17.59
2022-10-23T11:04:56.245Z,17.32
2022-10-23T11:07:29.292Z,17.71
2022-10-23T11:09:59.756Z,18.58
2022-10-23T11:12:27.921Z,18.25
2022-10-23T11:14:55.211Z,17.73
2022-10-23T11:17:26.773Z,18.18
2022-10-23T11:20:01.658Z,18.35
2022-10-23T11:22:35.797Z,18.71
2022-10-23T11:25:31.962Z,18.01
2022-10-23T11:28:13.109Z,18.40
2022-10-23T11:30:54.358Z,18.29
2022-10-23T11:33:52.562Z,18.25
2022-10-23T11:36:20.456Z,18.15
2022-10-23T11:38:49.370Z,18.25
2022-10-23T11:41:25.350Z,18.54
2022-10-23T11:43:55.471Z,18.43
2022-10-23T11:46:39.620Z,18.51
2022-10-23T11:49:20.601Z,18.23
2022-10-23T11:51:47.035Z,18.25
2022-10-23T11:54:21.730Z,18.43
2022-10-23T11:56:53.735Z,18.50
2022-10-23T11:59:25.762Z,19.21
2022-10-23T12:01:54.448Z,19.19
2022-10-23T12:04:26.178Z,18.94
2022-10-23T12:06:55.950Z,19.38
2022-10-23T12:09:26.643Z,18.94
2022-10-23T12:12:14.778Z,19.11
2022-10-23T12:14:43.439Z,18.97
2022-10-23T12:17:29.594Z,19.62
2022-10-23T12:20:04.348Z,19.42
2022-10-23T12:22:42.012Z,19.33
2022-10-23T12:25:14.586Z,19.21
2022-10-23T12:27:47.406Z,18.91
2022-10-23T12:30:22.513Z,19.65
2022-10-23T12:33:11.409Z,19.16
2022-10-23T12:36:09.189Z,18.72
2022-10-23T12:38:44.113Z,18.97
2022-10-23T12:41:14.136Z,19.05
2022-10-23T12:43:44.125Z,18.90
2022-10-23T12:46:27.587Z,19.11
2022-10-23T12:48:55.964Z,19.36
2022-10-23T12:51:24.977Z,19.24
2022-10-23T12:53:51.571Z,19.04
2022-10-23T12:56:18.938Z,18.68
2022-10-23T12:58:49.501Z,19.32
2022-10-23T13:01:23.972Z,19.44
2022-10-23T13:03:52.295Z,18.90
2022-10-23T13:06:19.216Z,19.25
2022-10-23T13:08:48.176Z,18.82
2022-10-23T13:11:17.222Z,19.06
2022-10-23T13:13:44.023Z,19.10
2022-10-23T13:16:14.492Z,18.89
2022-10-23T13:18:41.683Z,19.48
2022-10-23T13:21:16.481Z,18.86
2022-10-23T13:23:43.534Z,19.19
2022-10-23T13:26:25.544Z,18.80
2022-10-23T13:28:52.692Z,18.62
2022-10-23T13:31:30.136Z,18.81
2022-10-23T13:34:16.735Z,18.88
2022-10-23T13:36:53.554Z,18.73
2022-10-23T13:39:24.250Z,19.05
2022-10-23T13:41:52.124Z,19.20
2022-10-23T13:44:20.081Z,18.91
2022-10-23T13:46:47.055Z,19.40
2022-10-23T13:49:13.458Z,19.04
2022-10-23T13:51:44.379Z,18.83
2022-10-23T13:54:15.021Z,19.28
2022-10-23T13:56:41.489Z,18.70
2022-10-23T13:59:10.762Z,19.01
2022-10-23T14:01:37.327Z,18.95
2022-10-23T14:04:05.252Z,19.12
2022-10-23T14:06:32.044Z,19.11
2022-10-23T14:08:58.859Z,19.04
2022-10-23T14:11:25.954Z,19.00
2022-10-23T14:13:52.334Z,18.80
2022-10-23T14:16:20.696Z,18.80
2022-10-23T14:18:47.457Z,18.96
2022-10-23T14:21:16.463Z,18.87
2022-10-23T14:23:42.867Z,19.25
2022-10-23T14:26:11.771Z,19.14
2022-10-23T14:28:38.807Z,18.46
2022-10-23T14:31:06.444Z,19.09
2022-10-23T14:33:34.230Z,18.55
2022-10-23T14:36:00.928Z,18.13
2022-10-23T14:38:27.966Z,18.68
2022-10-23T14:40:54.372Z,18.52
2022-10-23T14:43:21.189Z,18.80
2022-10-23T14:45:47.896Z,19.18
2022-10-23T14:48:14.301Z,18.76
2022-10-23T14:50:45.392Z,18.94
2022-10-23T14:53:11.941Z,18.07
2022-10-23T14:55:39.054Z,19.11
2022-10-23T14:58:05.907Z,18.80
2022-10-23T15:00:32.554Z,18.92
2022-10-23T15:02:59.427Z,18.76
2022-10-23T15:05:26.020Z,18.96
2022-10-23T15:07:54.808Z,18.34
2022-10-23T15:10:21.251Z,18.72
2022-10-23T15:12:47.784Z,18.32
2022-10-23T15:15:14.212Z,18.01
2022-10-23T15:17:40.597Z,18.27
2022-10-23T15:20:07.540Z,18.39
2022-10-23T15:22:33.968Z,18.17
2022-10-23T15:25:01.704Z,18.70
2022-10-23T15:27:28.128Z,18.37
2022-10-23T15:29:54.529Z,18.50
2022-10-23T15:32:20.941Z,18.42
2022-10-23T15:34:47.340Z,18.25
2022-10-23T15:37:13.981Z,18.43
2022-10-23T15:39:40.392Z,18.37
2022-10-23T15:42:08.116Z,18.50
2022-10-23T15:44:34.810Z,18.78
2022-10-23T15:47:01.462Z,19.14
2022-10-23T15:49:28.740Z,19.03
2022-10-23T15:51:55.265Z,18.86
2022-10-23T15:54:22.633Z,18.78
2022-10-23T15:56:50.854Z,18.63
2022-10-23T15:59:20.611Z,18.24
2022-10-23T16:01:47.300Z,18.25
2022-10-23T16:04:14.002Z,18.25
2022-10-23T16:06:40.431Z,17.95
2022-10-23T16:09:06.876Z,17.74
2022-10-23T16:11:35.545Z,17.47
2022-10-23T16:14:01.983Z,17.42
2022-10-23T16:16:30.307Z,17.34
2022-10-23T16:18:58.807Z,17.58
2022-10-23T16:21:27.758Z,17.36
2022-10-23T16:23:56.141Z,17.57
2022-10-23T16:26:23.395Z,18.11
2022-10-23T16:28:52.705Z,17.73
2022-10-23T16:31:23.835Z,17.89
2022-10-23T16:33:52.410Z,18.04
2022-10-23T16:36:19.645Z,17.72
2022-10-23T16:38:46.152Z,17.54
2022-10-23T16:41:12.556Z,17.84
2022-10-23T16:43:39.150Z,18.16
2022-10-23T16:46:07.268Z,18.12
2022-10-23T16:48:34.931Z,18.13
2022-10-23T16:51:05.808Z,17.93
2022-10-23T16:53:32.551Z,17.51
2022-10-23T16:55:59.100Z,17.54
2022-10-23T16:58:26.238Z,17.52
2022-10-23T17:00:57.184Z,17.49
2022-10-23T17:03:23.707Z,17.14
2022-10-23T17:05:50.168Z,17.06
2022-10-23T17:08:17.879Z,16.79
2022-10-23T17:10:44.344Z,17.44
2022-10-23T17:13:10.819Z,17.09
2022-10-23T17:15:37.266Z,17.16
2022-10-23T17:18:03.832Z,17.24
2022-10-23T17:20:30.267Z,17.38
2022-10-23T17:23:17.940Z,16.98
2022-10-23T17:25:44.347Z,16.93
2022-10-23T17:28:10.749Z,16.95
2022-10-23T17:30:37.725Z,16.95
2022-10-23T17:33:04.166Z,17.56
2022-10-23T17:35:30.573Z,17.61
2022-10-23T17:37:56.974Z,17.55
2022-10-23T17:40:25.266Z,17.78
2022-10-23T17:42:51.784Z,17.78
2022-10-23T17:45:18.181Z,17.80
2022-10-23T17:47:44.632Z,17.69
2022-10-23T17:50:11.041Z,17.99
2022-10-23T17:52:37.719Z,17.62
2022-10-23T17:55:04.852Z,17.69
2022-10-23T17:57:32.609Z,17.77
2022-10-23T17:59:59.071Z,17.53
2022-10-23T18:02:25.699Z,17.67
2022-10-23T18:04:52.242Z,17.79
2022-10-23T18:07:18.894Z,17.30
2022-10-23T18:09:45.410Z,16.80
2022-10-23T18:12:11.816Z,16.96
2022-10-23T18:14:39.602Z,16.81
2022-10-23T18:17:06.034Z,16.74
2022-10-23T18:19:32.471Z,16.49
2022-10-23T18:21:58.965Z,16.93
2022-10-23T18:24:25.427Z,17.38
2022-10-23T18:26:52.175Z,17.30
2022-10-23T18:29:18.608Z,17.29
2022-10-23T18:31:46.580Z,16.83
2022-10-23T18:34:17.026Z,17.18
2022-10-23T18:36:43.837Z,17.53
2022-10-23T18:39:13.584Z,17.47
2022-10-23T18:41:42.069Z,17.56
2022-10-23T18:44:10.454Z,17.69
2022-10-23T18:46:37.448Z,17.18
2022-10-23T18:49:05.484Z,17.19
2022-10-23T18:51:33.771Z,17.21
2022-10-23T18:54:01.938Z,17.40
2022-10-23T18:56:28.384Z,17.00
2022-10-23T18:58:57.147Z,16.98
2022-10-23T19:01:25.979Z,16.98
2022-10-23T19:03:53.405Z,16.63
2022-10-23T19:06:23.133Z,17.12
2022-10-23T19:08:49.982Z,17.00
2022-10-23T19:11:18.919Z,16.89
2022-10-23T19:13:45.338Z,17.16
2022-10-23T19:16:15.891Z,17.18
2022-10-23T19:18:47.023Z,17.04
2022-10-23T19:21:13.953Z,16.54
2022-10-23T19:23:43.002Z,16.96
2022-10-23T19:26:12.238Z,16.61
2022-10-23T19:28:42.011Z,16.40
2022-10-23T19:31:09.191Z,16.37
2022-10-23T19:33:36.086Z,16.67
2022-10-23T19:36:05.413Z,16.86
2022-10-23T19:38:33.031Z,16.41
2022-10-23T19:41:00.832Z,16.45
2022-10-23T19:43:27.541Z,16.60
2022-10-23T19:45:53.967Z,15.94
2022-10-23T19:48:20.412Z,16.31
2022-10-23T19:50:46.840Z,16.38
2022-10-23T19:53:13.284Z,16.42
2022-10-23T19:55:39.663Z,16.17
2022-10-23T19:58:07.403Z,16.61
2022-10-23T20:00:33.855Z,16.20
2022-10-23T20:03:00.244Z,16.41
2022-10-23T20:05:27.094Z,16.71
2022-10-23T20:07:53.668Z,16.70
2022-10-23T20:10:20.148Z,16.46
2022-10-23T20:12:56.389Z,16.89
2022-10-23T20:15:24.765Z,16.93
2022-10-23T20:17:51.152Z,16.64
2022-10-23T20:20:17.967Z,16.39
2022-10-23T20:22:44.430Z,16.38
2022-10-23T20:25:10.856Z,16.47
2022-10-23T20:30:09.907Z,16.16
2022-10-23T20:32:37.811Z,15.86
2022-10-23T20:35:04.822Z,16.03
2022-10-23T20:37:31.905Z,15.91
2022-10-23T20:39:58.295Z,15.80
2022-10-23T20:42:24.662Z,15.73
2022-10-23T20:44:51.058Z,15.63
2022-10-23T20:47:17.452Z,15.85
2022-10-23T20:49:45.188Z,15.45
2022-10-23T20:52:11.596Z,15.56
2022-10-23T20:54:38.004Z,15.49
2022-10-23T20:57:04.435Z,16.27
2022-10-23T20:59:30.846Z,16.41
2022-10-23T21:01:57.424Z,15.87
2022-10-23T21:04:26.059Z,16.17
2022-10-23T21:07:09.576Z,15.83
2022-10-23T21:09:37.427Z,16.24
2022-10-23T21:12:04.594Z,16.50
2022-10-23T21:14:31.014Z,16.90
2022-10-23T21:16:57.453Z,16.50
2022-10-23T21:19:23.875Z,16.30
2022-10-23T21:21:50.261Z,16.62
2022-10-23T21:24:18.021Z,15.66
2022-10-23T21:26:45.261Z,16.11
2022-10-23T21:29:18.541Z,16.54
2022-10-23T21:31:50.601Z,16.37
2022-10-23T21:34:16.995Z,16.69
2022-10-23T21:37:00.185Z,16.90
2022-10-23T21:39:31.216Z,16.47
2022-10-23T21:41:57.631Z,16.13
2022-10-23T21:44:24.035Z,16.15
2022-10-23T21:46:50.431Z,16.45
2022-10-23T21:49:16.931Z,15.80
2022-10-23T21:51:43.317Z,16.28
2022-10-23T21:54:12.604Z,16.40
2022-10-23T21:56:43.368Z,16.63
2022-10-23T21:59:12.743Z,15.94
2022-10-23T22:01:39.556Z,16.30
2022-10-23T22:04:06.037Z,15.87
2022-10-23T22:06:32.430Z,16.03
2022-10-23T22:09:00.879Z,15.61
2022-10-23T22:11:28.004Z,16.00
2022-10-23T22:13:56.611Z,15.70
2022-10-23T22:16:23.128Z,15.39
2022-10-23T22:18:49.950Z,15.36
2022-10-23T22:21:19.265Z,15.59
2022-10-23T22:23:46.292Z,15.75
2022-10-23T22:26:20.599Z,15.43
2022-10-23T22:28:46.997Z,15.68
2022-10-23T22:31:16.432Z,15.25
2022-10-23T22:33:43.156Z,15.61
2022-10-23T22:36:10.063Z,15.58
2022-10-23T22:38:36.467Z,15.32
2022-10-23T22:41:04.300Z,15.89
2022-10-23T22:43:30.850Z,15.83
2022-10-23T22:46:02.837Z,15.59
2022-10-23T22:48:30.678Z,15.44
2022-10-23T22:50:57.182Z,15.59
2022-10-23T22:53:23.670Z,15.51
2022-10-23T22:55:50.327Z,14.84
2022-10-23T22:58:16.764Z,15.58
2022-10-23T23:00:43.740Z,15.09
2022-10-23T23:03:10.453Z,15.18
2022-10-23T23:08:14.770Z,15.48
2022-10-23T23:10:41.389Z,15.76
2022-10-23T23:13:07.989Z,15.47
2022-10-23T23:15:39.740Z,15.58
2022-10-23T23:18:06.285Z,15.40
2022-10-23T23:20:34.286Z,15.63
2022-10-23T23:23:02.171Z,15.41
2022-10-23T23:25:29.228Z,15.79
2022-10-23T23:27:55.635Z,16.09
2022-10-23T23:30:22.678Z,15.74
2022-10-23T23:32:49.699Z,15.90
2022-10-23T23:35:16.261Z,15.98
2022-10-23T23:37:42.699Z,16.32
2022-10-23T23:40:12.176Z,16.34
2022-10-23T23:42:38.715Z,15.79
2022-10-23T23:45:14.398Z,16.45
2022-10-23T23:47:41.784Z,16.17
2022-10-23T23:50:10.017Z,16.05
2022-10-23T23:52:36.473Z,15.90
2022-10-23T23:55:03.431Z,15.97
2022-10-23T23:57:31.404Z,15.41
2022-10-23T23:59:57.946Z,15.73
